createdAt,value
2018-07-06T00:01:11.465Z,85.68
2018-07-06T00:04:32.989Z,85.90
2018-07-06T00:07:54.579Z,86.26
2018-07-06T00:11:16.151Z,86.51
2018-07-06T00:14:37.420Z,86.40
2018-07-06T00:17:59.049Z,86.66
2018-07-06T00:21:20.792Z,87.34
2018-07-06T00:24:42.383Z,87.99
2018-07-06T00:28:03.949Z,87.92
2018-07-06T00:31:25.537Z,87.95
2018-07-06T00:34:46.833Z,88.07
2018-07-06T00:38:08.201Z,88.01
2018-07-06T00:41:29.572Z,88.06
2018-07-06T00:44:45.000Z,88.12
2018-07-06T00:48:06.438Z,87.95
2018-07-06T00:51:27.950Z,88.21
2018-07-06T00:54:49.259Z,88.59
2018-07-06T00:58:10.811Z,88.55
2018-07-06T01:01:32.279Z,88.41
2018-07-06T01:04:53.599Z,88.36
2018-07-06T01:08:14.916Z,88.80
2018-07-06T01:11:36.381Z,88.05
2018-07-06T01:14:57.846Z,88.42
2018-07-06T01:18:19.465Z,87.67
2018-07-06T01:21:41.004Z,87.32
2018-07-06T01:25:02.393Z,87.58
2018-07-06T01:28:23.901Z,87.34
2018-07-06T01:31:45.376Z,87.34
2018-07-06T01:35:06.613Z,87.55
2018-07-06T01:38:28.457Z,87.60
2018-07-06T01:41:49.775Z,87.48
2018-07-06T01:45:11.004Z,88.24
2018-07-06T01:48:32.487Z,87.69
2018-07-06T01:51:54.381Z,87.89
2018-07-06T01:55:15.829Z,88.22
2018-07-06T01:58:37.240Z,86.64
2018-07-06T02:01:58.864Z,86.04
2018-07-06T02:05:20.256Z,85.66
2018-07-06T02:08:41.733Z,86.26
2018-07-06T02:12:03.167Z,86.73
2018-07-06T02:15:24.548Z,87.24
2018-07-06T02:18:46.077Z,87.04
2018-07-06T02:22:07.418Z,87.42
2018-07-06T02:25:28.931Z,87.34
2018-07-06T02:28:50.422Z,87.20
2018-07-06T02:32:11.801Z,87.04
2018-07-06T02:35:33.250Z,86.63
2018-07-06T02:38:54.697Z,86.89
2018-07-06T02:42:16.209Z,86.85
2018-07-06T02:45:37.493Z,86.82
2018-07-06T02:48:58.855Z,86.87
2018-07-06T02:52:20.410Z,87.14
2018-07-06T02:55:43.681Z,87.04
2018-07-06T02:59:05.203Z,87.25
2018-07-06T03:02:26.748Z,87.05
2018-07-06T03:05:48.120Z,87.04
2018-07-06T03:09:09.477Z,87.02
2018-07-06T03:12:31.044Z,86.67
2018-07-06T03:15:52.565Z,86.88
2018-07-06T03:19:14.115Z,86.54
2018-07-06T03:22:35.608Z,86.77
2018-07-06T03:25:57.014Z,87.70
2018-07-06T03:29:18.323Z,87.56
2018-07-06T03:32:39.736Z,87.95
2018-07-06T03:36:01.154Z,86.11
2018-07-06T03:39:22.464Z,86.23
2018-07-06T03:42:43.923Z,85.44
2018-07-06T03:46:05.237Z,85.26
2018-07-06T03:49:26.846Z,85.49
2018-07-06T03:52:48.292Z,85.63
2018-07-06T03:56:09.778Z,85.26
2018-07-06T03:59:31.076Z,85.77
2018-07-06T04:02:52.418Z,84.98
2018-07-06T04:06:13.881Z,83.55
2018-07-06T04:09:35.318Z,83.87
2018-07-06T04:12:56.957Z,83.42
2018-07-06T04:16:18.542Z,83.55
2018-07-06T04:19:40.079Z,82.92
2018-07-06T04:23:01.549Z,82.39
2018-07-06T04:26:22.950Z,82.09
2018-07-06T04:29:44.382Z,80.29
2018-07-06T04:33:05.808Z,80.67
2018-07-06T04:36:27.215Z,80.01
2018-07-06T04:39:48.545Z,80.80
2018-07-06T04:43:09.981Z,79.68
2018-07-06T04:46:31.367Z,79.77
2018-07-06T04:49:52.691Z,79.88
2018-07-06T04:53:14.332Z,79.81
2018-07-06T04:56:36.018Z,79.44
2018-07-06T04:59:57.401Z,79.09
2018-07-06T05:03:18.876Z,79.21
2018-07-06T05:06:40.534Z,79.24
2018-07-06T05:10:02.192Z,79.43
2018-07-06T05:13:23.582Z,79.01
2018-07-06T05:16:45.075Z,78.36
2018-07-06T05:20:06.269Z,77.37
2018-07-06T05:23:27.545Z,77.79
2018-07-06T05:26:48.716Z,78.57
2018-07-06T05:30:10.014Z,77.55
2018-07-06T05:33:31.421Z,77.04
2018-07-06T05:36:52.958Z,76.37
2018-07-06T05:40:14.487Z,76.20
2018-07-06T05:43:35.975Z,76.28
2018-07-06T05:46:57.717Z,76.34
2018-07-06T05:50:19.130Z,75.64
2018-07-06T05:53:40.584Z,76.03
2018-07-06T05:57:01.938Z,75.82
2018-07-06T06:00:23.312Z,76.15
2018-07-06T06:03:44.712Z,74.48
2018-07-06T06:07:06.075Z,75.00
2018-07-06T06:10:10.372Z,74.58
2018-07-06T06:13:14.712Z,74.08
2018-07-06T06:16:19.237Z,73.33
2018-07-06T06:19:23.544Z,73.23
2018-07-06T06:22:27.946Z,73.60
2018-07-06T06:25:32.194Z,73.71
2018-07-06T06:28:36.809Z,74.05
2018-07-06T06:31:41.141Z,72.93
2018-07-06T06:34:45.473Z,73.05
2018-07-06T06:37:49.917Z,72.20
2018-07-06T06:40:54.177Z,71.64
2018-07-06T06:43:58.566Z,71.79
2018-07-06T06:47:02.879Z,71.46
2018-07-06T06:50:07.287Z,70.38
2018-07-06T06:53:11.713Z,69.95
2018-07-06T06:56:16.020Z,70.55
2018-07-06T06:59:20.382Z,69.53
2018-07-06T07:02:24.817Z,70.07
2018-07-06T07:05:29.311Z,69.73
2018-07-06T07:08:33.755Z,69.17
2018-07-06T07:11:38.103Z,69.07
2018-07-06T07:14:42.196Z,66.24
2018-07-06T07:17:46.803Z,65.28
2018-07-06T07:20:51.089Z,65.20
2018-07-06T07:23:55.764Z,67.64
2018-07-06T07:27:01.037Z,67.11
2018-07-06T07:30:05.376Z,68.21
2018-07-06T07:33:09.695Z,67.72
2018-07-06T07:36:14.073Z,64.36
2018-07-06T07:39:18.374Z,64.24
2018-07-06T07:42:22.741Z,64.46
2018-07-06T07:45:27.118Z,64.99
2018-07-06T07:48:31.543Z,65.32
2018-07-06T07:52:07.173Z,64.50
2018-07-06T07:55:11.504Z,64.62
2018-07-06T07:58:15.899Z,62.86
2018-07-06T08:01:20.360Z,62.63
2018-07-06T08:04:24.692Z,62.64
2018-07-06T08:07:29.214Z,61.90
2018-07-06T08:10:33.605Z,62.08
2018-07-06T08:13:37.969Z,62.58
2018-07-06T08:16:42.364Z,61.74
2018-07-06T08:19:46.754Z,61.08
2018-07-06T08:22:51.183Z,59.27
2018-07-06T08:25:55.527Z,59.66
2018-07-06T08:28:59.858Z,60.25
2018-07-06T08:32:04.261Z,60.83
2018-07-06T08:35:25.785Z,59.83
2018-07-06T08:38:30.112Z,59.32
2018-07-06T08:41:34.633Z,59.38
2018-07-06T08:44:38.939Z,58.35
2018-07-06T08:47:43.860Z,58.42
2018-07-06T08:50:48.209Z,57.63
2018-07-06T08:53:52.616Z,57.59
2018-07-06T08:56:56.949Z,57.38
2018-07-06T09:00:01.524Z,57.68
2018-07-06T09:03:06.627Z,56.89
2018-07-06T09:06:11.029Z,56.62
2018-07-06T09:09:15.552Z,56.76
2018-07-06T09:12:20.004Z,57.42
2018-07-06T09:15:24.421Z,58.66
2018-07-06T09:18:28.828Z,57.98
2018-07-06T09:21:33.093Z,56.92
2018-07-06T09:24:37.461Z,55.72
2018-07-06T09:27:41.872Z,56.77
2018-07-06T09:30:46.199Z,55.79
2018-07-06T09:33:50.553Z,55.36
2018-07-06T09:36:55.001Z,57.19
2018-07-06T09:39:59.368Z,54.93
2018-07-06T09:43:03.666Z,56.87
2018-07-06T09:46:07.977Z,56.73
2018-07-06T09:49:12.326Z,56.21
2018-07-06T09:52:16.612Z,55.31
2018-07-06T09:55:20.964Z,56.00
2018-07-06T09:58:25.483Z,55.60
2018-07-06T10:01:29.784Z,54.57
2018-07-06T10:04:34.181Z,55.71
2018-07-06T10:07:38.510Z,55.01
2018-07-06T10:10:42.830Z,55.47
2018-07-06T10:13:47.203Z,55.63
2018-07-06T10:16:51.521Z,54.84
2018-07-06T10:19:55.885Z,54.68
2018-07-06T10:23:00.225Z,52.13
2018-07-06T10:26:04.545Z,53.13
2018-07-06T10:29:35.780Z,54.89
2018-07-06T10:32:40.133Z,54.95
2018-07-06T10:35:44.596Z,55.92
2018-07-06T10:38:48.915Z,55.13
2018-07-06T10:41:53.312Z,54.80
2018-07-06T10:44:57.727Z,56.15
2018-07-06T10:48:01.996Z,55.17
2018-07-06T10:51:06.886Z,55.05
2018-07-06T10:54:11.272Z,55.21
2018-07-06T10:57:15.613Z,53.20
2018-07-06T11:00:20.041Z,53.31
2018-07-06T11:03:24.343Z,53.44
2018-07-06T11:06:28.665Z,53.35
2018-07-06T11:09:33.035Z,53.28
2018-07-06T11:12:37.545Z,54.25
2018-07-06T11:15:42.043Z,54.91
2018-07-06T11:18:46.455Z,55.52
2018-07-06T11:21:50.774Z,54.20
2018-07-06T11:24:55.198Z,53.89
2018-07-06T11:27:59.596Z,53.38
2018-07-06T11:31:03.905Z,55.45
2018-07-06T11:34:09.302Z,54.38
2018-07-06T11:37:13.724Z,54.75
2018-07-06T11:40:18.117Z,54.50
2018-07-06T11:43:22.400Z,54.22
2018-07-06T11:46:26.764Z,54.10
2018-07-06T11:49:31.098Z,53.93
2018-07-06T11:52:35.483Z,52.06
2018-07-06T11:55:39.843Z,51.86
2018-07-06T11:58:44.135Z,53.55
2018-07-06T12:01:48.456Z,53.85
2018-07-06T12:04:52.873Z,53.90
2018-07-06T12:07:57.201Z,54.89
2018-07-06T12:11:02.094Z,52.71
2018-07-06T12:14:06.469Z,52.21
2018-07-06T12:17:10.883Z,51.38
2018-07-06T12:20:15.225Z,50.08
2018-07-06T12:23:19.697Z,50.11
2018-07-06T12:26:24.037Z,50.22
2018-07-06T12:29:28.323Z,50.24
2018-07-06T12:32:32.648Z,50.99
2018-07-06T12:35:37.116Z,50.34
2018-07-06T12:38:41.408Z,51.21
2018-07-06T12:41:45.728Z,51.69
2018-07-06T12:44:50.180Z,50.93
2018-07-06T12:47:54.470Z,48.54
2018-07-06T12:50:58.857Z,50.07
2018-07-06T12:54:03.205Z,49.21
2018-07-06T12:57:07.531Z,49.44
2018-07-06T13:00:11.831Z,50.38
2018-07-06T13:03:16.135Z,49.65
2018-07-06T13:06:20.485Z,51.28
2018-07-06T13:09:24.923Z,49.35
2018-07-06T13:12:29.225Z,49.43
2018-07-06T13:15:33.546Z,49.64
2018-07-06T13:18:37.851Z,49.34
2018-07-06T13:21:42.165Z,50.02
2018-07-06T13:24:46.436Z,48.67
2018-07-06T13:27:50.820Z,49.50
2018-07-06T13:30:55.147Z,49.50
2018-07-06T13:33:59.511Z,50.09
2018-07-06T13:37:03.900Z,50.11
2018-07-06T13:40:08.437Z,50.83
2018-07-06T13:43:12.727Z,50.13
2018-07-06T13:46:17.045Z,49.77
2018-07-06T13:49:21.408Z,49.43
2018-07-06T13:52:25.788Z,51.44
2018-07-06T13:55:30.092Z,51.61
2018-07-06T13:58:34.407Z,50.18
2018-07-06T14:01:38.548Z,51.54
2018-07-06T14:04:42.820Z,50.86
2018-07-06T14:07:47.176Z,52.67
2018-07-06T14:10:51.469Z,52.47
2018-07-06T14:13:56.037Z,52.45
2018-07-06T14:17:00.721Z,50.60
2018-07-06T14:20:05.024Z,50.76
2018-07-06T14:23:10.443Z,51.67
2018-07-06T14:26:14.965Z,50.99
2018-07-06T14:29:19.276Z,51.20
2018-07-06T14:32:25.279Z,52.05
2018-07-06T14:35:29.632Z,51.79
2018-07-06T14:38:34.584Z,52.44
2018-07-06T14:41:39.875Z,52.44
2018-07-06T14:44:45.616Z,52.91
2018-07-06T14:47:50.687Z,52.89
2018-07-06T14:50:55.971Z,53.29
2018-07-06T14:54:01.271Z,54.41
2018-07-06T14:57:06.511Z,54.85
2018-07-06T15:00:11.003Z,55.08
2018-07-06T15:03:15.330Z,55.15
2018-07-06T15:06:19.646Z,54.87
2018-07-06T15:09:23.973Z,54.21
2018-07-06T15:12:28.369Z,53.71
2018-07-06T15:15:33.507Z,52.50
2018-07-06T15:18:37.897Z,50.95
2018-07-06T15:21:42.192Z,51.27
2018-07-06T15:24:46.555Z,50.73
2018-07-06T15:27:50.887Z,51.42
2018-07-06T15:30:55.380Z,50.69
2018-07-06T15:33:59.810Z,48.66
2018-07-06T15:37:04.226Z,48.82
2018-07-06T15:40:08.553Z,48.71
2018-07-06T15:43:13.204Z,49.71
2018-07-06T15:46:17.667Z,48.40
2018-07-06T15:49:22.021Z,51.07
2018-07-06T15:52:26.339Z,50.54
2018-07-06T15:55:31.534Z,51.36
2018-07-06T15:58:35.691Z,51.72
2018-07-06T16:01:39.973Z,53.29
2018-07-06T16:04:44.285Z,52.44
2018-07-06T16:07:48.615Z,53.10
2018-07-06T16:10:53.110Z,52.45
2018-07-06T16:13:57.442Z,50.77
2018-07-06T16:17:01.773Z,50.71
2018-07-06T16:20:06.211Z,49.98
2018-07-06T16:23:10.545Z,50.31
2018-07-06T16:26:14.863Z,49.44
2018-07-06T16:29:19.199Z,49.92
2018-07-06T16:32:23.643Z,50.39
2018-07-06T16:35:28.023Z,50.65
2018-07-06T16:38:32.365Z,51.57
2018-07-06T16:41:36.751Z,54.21
2018-07-06T16:44:41.057Z,52.96
2018-07-06T16:47:45.513Z,52.52
2018-07-06T16:50:49.795Z,54.23
2018-07-06T16:53:54.185Z,55.46
2018-07-06T16:56:58.444Z,56.45
2018-07-06T17:00:02.777Z,54.18
2018-07-06T17:03:07.084Z,52.58
2018-07-06T17:06:11.348Z,52.57
2018-07-06T17:09:15.760Z,51.14
2018-07-06T17:12:20.091Z,51.51
2018-07-06T17:15:24.402Z,50.71
2018-07-06T17:18:28.822Z,51.42
2018-07-06T17:21:33.096Z,53.64
2018-07-06T17:24:37.443Z,55.67
2018-07-06T17:27:42.109Z,56.82
2018-07-06T17:30:46.518Z,58.04
2018-07-06T17:33:50.898Z,59.42
2018-07-06T17:36:55.659Z,60.57
2018-07-06T17:39:59.980Z,62.24
2018-07-06T17:43:04.288Z,62.20
2018-07-06T17:46:08.628Z,62.77
2018-07-06T17:49:12.981Z,61.87
2018-07-06T17:52:17.364Z,62.53
2018-07-06T17:55:21.708Z,63.33
2018-07-06T17:58:26.027Z,63.83
2018-07-06T18:01:30.452Z,64.53
2018-07-06T18:04:34.830Z,64.23
2018-07-06T18:07:39.198Z,65.26
2018-07-06T18:10:43.549Z,65.38
2018-07-06T18:13:47.847Z,65.23
2018-07-06T18:16:52.254Z,64.74
2018-07-06T18:19:57.388Z,65.11
2018-07-06T18:23:02.445Z,66.31
2018-07-06T18:26:06.899Z,66.54
2018-07-06T18:29:11.371Z,67.98
2018-07-06T18:32:16.064Z,68.16
2018-07-06T18:35:20.452Z,68.57
2018-07-06T18:38:24.882Z,69.15
2018-07-06T18:41:29.170Z,68.78
2018-07-06T18:44:33.519Z,69.37
2018-07-06T18:47:38.010Z,68.78
2018-07-06T18:50:42.315Z,69.43
2018-07-06T18:53:46.696Z,70.26
2018-07-06T18:56:50.963Z,70.78
2018-07-06T18:59:55.300Z,71.03
2018-07-06T19:02:59.673Z,70.65
2018-07-06T19:06:03.989Z,71.06
2018-07-06T19:09:08.592Z,70.89
2018-07-06T19:12:12.864Z,70.86
2018-07-06T19:15:17.194Z,71.38
2018-07-06T19:18:21.693Z,71.08
2018-07-06T19:21:26.217Z,70.89
2018-07-06T19:24:30.656Z,70.66
2018-07-06T19:27:35.022Z,70.77
2018-07-06T19:30:39.360Z,69.83
2018-07-06T19:33:43.722Z,69.22
2018-07-06T19:36:48.020Z,69.69
2018-07-06T19:39:52.508Z,69.37
2018-07-06T19:42:56.889Z,68.75
2018-07-06T19:46:01.237Z,68.94
2018-07-06T19:49:05.631Z,68.42
2018-07-06T19:52:09.989Z,68.87
2018-07-06T19:55:14.354Z,69.28
2018-07-06T19:58:18.718Z,68.59
2018-07-06T20:01:23.052Z,68.41
2018-07-06T20:04:27.363Z,68.67
2018-07-06T20:07:31.814Z,69.01
2018-07-06T20:10:36.138Z,69.87
2018-07-06T20:13:40.542Z,70.31
2018-07-06T20:16:44.836Z,70.29
2018-07-06T20:19:49.172Z,70.98
2018-07-06T20:22:53.612Z,71.64
2018-07-06T20:25:58.117Z,72.09
2018-07-06T20:29:02.463Z,73.18
2018-07-06T20:32:06.857Z,72.88
2018-07-06T20:35:11.221Z,73.01
2018-07-06T20:38:15.631Z,73.44
2018-07-06T20:41:20.073Z,73.62
2018-07-06T20:44:24.444Z,74.23
2018-07-06T20:47:28.782Z,73.89
2018-07-06T20:50:33.107Z,73.98
2018-07-06T20:53:37.554Z,74.90
2018-07-06T20:56:41.825Z,74.72
2018-07-06T20:59:46.205Z,74.80
2018-07-06T21:02:50.509Z,74.85
2018-07-06T21:05:54.825Z,75.42
2018-07-06T21:08:59.231Z,75.85
2018-07-06T21:12:03.568Z,75.80
2018-07-06T21:15:08.017Z,76.14
2018-07-06T21:18:12.381Z,76.89
2018-07-06T21:21:16.749Z,76.93
2018-07-06T21:24:21.068Z,77.24
2018-07-06T21:27:25.332Z,77.55
2018-07-06T21:30:29.659Z,77.80
2018-07-06T21:33:33.974Z,77.51
2018-07-06T21:36:38.343Z,78.12
2018-07-06T21:39:42.743Z,78.62
2018-07-06T21:42:48.073Z,79.21
2018-07-06T21:45:52.451Z,79.33
2018-07-06T21:48:56.773Z,79.96
2018-07-06T21:52:01.155Z,80.15
2018-07-06T21:55:05.496Z,80.68
2018-07-06T21:58:09.784Z,80.21
2018-07-06T22:01:14.177Z,80.99
2018-07-06T22:04:18.536Z,81.73
2018-07-06T22:07:22.800Z,82.15
2018-07-06T22:10:27.362Z,81.83
2018-07-06T22:13:31.523Z,82.45
2018-07-06T22:16:35.962Z,82.54
2018-07-06T22:19:40.226Z,83.21
2018-07-06T22:22:44.543Z,83.24
2018-07-06T22:25:48.897Z,83.12
2018-07-06T22:28:53.378Z,83.71
2018-07-06T22:31:57.780Z,83.50
2018-07-06T22:35:02.172Z,83.65
2018-07-06T22:38:06.284Z,83.44
2018-07-06T22:41:10.634Z,84.03
2018-07-06T22:44:14.953Z,83.98
2018-07-06T22:47:19.239Z,83.86
2018-07-06T22:50:23.615Z,83.55
2018-07-06T22:53:27.892Z,84.06
2018-07-06T22:56:32.229Z,83.48
2018-07-06T22:59:36.544Z,84.01
2018-07-06T23:02:40.868Z,84.24
2018-07-06T23:05:45.243Z,84.09
2018-07-06T23:08:49.600Z,84.33
2018-07-06T23:11:53.907Z,84.33
2018-07-06T23:14:58.215Z,84.43
2018-07-06T23:18:02.582Z,85.09
2018-07-06T23:21:07.665Z,84.92
2018-07-06T23:24:12.036Z,84.99
2018-07-06T23:27:16.461Z,84.77
2018-07-06T23:30:20.802Z,84.56
2018-07-06T23:33:25.117Z,85.04
2018-07-06T23:36:29.395Z,85.16
2018-07-06T23:39:33.856Z,85.68
2018-07-06T23:42:38.649Z,85.65
2018-07-06T23:45:42.934Z,85.72
2018-07-06T23:48:47.325Z,85.79
2018-07-06T23:51:51.643Z,85.74
2018-07-06T23:54:55.924Z,85.99
2018-07-06T23:58:00.364Z,85.91
